Battleview, North Dakota
Current Conditions -  °F | °C
As of 9:55 PM on Sunday 23 Nov 2014 (Local Time) from KD60 Reporting Station
Clear Clear  
Wind Chill: -2°   Ceiling: Unl
Heat Index: 10°   Visibility: 10mi
Dew Point: 10°   Wind: 8mph
Humidity: 100%   Direction: 330°NNW
Pressure: 29.79"   Gusts: 16mph
Location:  48.6287°N, 102.589°W
Report Text: KD60 240355Z AUTO 33007G14KT 10SM CLR M12/M12 A2979 RMK AO2
Loading
Personal Weather Stations






























Interactive Weather Map New forecast layout! Learn more

10-Day Weather Forecast

Advertisements
Track Severe Weather on mobile